Time;durP1;ratioP1;P1;durP2;ratioP2;P2;SDS_P1;SDS_P2;PMS_P1;PMS_P2;Temp;Humidity;BMP_temperature;BMP_pressure;BME280_temperature;BME280_humidity;BME280_pressure;Samples;Min_cycle;Max_cycle;Signal;HPM_P1;HPM_P2
2022/09/27 00:02:32;;;;;;;2.50;1.50;;;;;;;-144.22;100.00;60274.75;6281010;28;20608;-41
2022/09/27 00:05:34;;;;;;;1.77;1.67;;;;;;;-144.22;100.00;60274.75;6281345;28;20236;-43
2022/09/27 00:08:37;;;;;;;1.67;1.57;;;;;;;-144.22;100.00;60274.75;6279812;28;20236;-41
2022/09/27 00:11:43;;;;;;;7.40;1.77;;;;;;;-144.22;100.00;60274.75;6282245;28;20227;-42
2022/09/27 00:14:45;;;;;;;2.67;1.60;;;;;;;-144.22;100.00;60274.75;6280117;28;20236;-41
2022/09/27 00:17:50;;;;;;;1.87;1.77;;;;;;;-144.22;100.00;60274.75;6281417;28;20720;-42
2022/09/27 00:20:52;;;;;;;2.27;2.00;;;;;;;-144.22;100.00;60274.75;6281023;28;20224;-41
2022/09/27 00:23:55;;;;;;;2.20;2.00;;;;;;;-144.22;100.00;60274.75;6281086;28;20234;-41
2022/09/27 00:26:58;;;;;;;2.37;1.80;;;;;;;-144.22;100.00;60274.75;6281536;28;20239;-41
2022/09/27 00:30:00;;;;;;;1.70;1.60;;;;;;;-144.22;100.00;60274.75;6278431;28;20241;-42
2022/09/27 00:33:02;;;;;;;1.80;1.70;;;;;;;-144.22;100.00;60274.75;6280777;28;20236;-41
2022/09/27 00:36:05;;;;;;;3.50;1.63;;;;;;;-144.22;100.00;60274.75;6281445;28;20393;-42
2022/09/27 00:39:08;;;;;;;1.90;1.70;;;;;;;-144.22;100.00;60274.75;6281659;28;20265;-41
2022/09/27 00:42:11;;;;;;;2.07;1.87;;;;;;;-144.22;100.00;60274.75;6279531;28;20240;-41
2022/09/27 00:45:16;;;;;;;1.60;1.50;;;;;;;-144.22;100.00;60274.75;6261649;28;20560;-43
2022/09/27 00:48:23;;;;;;;2.10;1.90;;;;;;;-144.22;100.00;60274.75;6279660;28;20312;-41
2022/09/27 00:51:25;;;;;;;1.70;1.60;;;;;;;-144.22;100.00;60274.75;6279728;28;20378;-42
2022/09/27 00:54:29;;;;;;;1.60;1.50;;;;;;;-144.22;100.00;60274.75;6282221;28;20424;-42
2022/09/27 00:57:32;;;;;;;2.43;2.10;;;;;;;-144.22;100.00;60274.75;6280247;28;20232;-41
2022/09/27 01:00:38;;;;;;;2.37;1.80;;;;;;;-144.22;100.00;60274.75;6279605;28;20721;-42
2022/09/27 01:03:59;;;;;;;2.00;1.90;;;;;;;-144.22;100.00;60274.75;6262765;28;20646;-41
2022/09/27 01:07:01;;;;;;;2.10;1.83;;;;;;;-144.22;100.00;60274.75;6277904;28;20228;-41
2022/09/27 01:10:04;;;;;;;1.40;1.30;;;;;;;-144.22;100.00;60274.75;6280640;28;20238;-41
2022/09/27 01:13:18;;;;;;;1.70;1.60;;;;;;;-144.22;100.00;60274.75;6278462;28;20765;-41
2022/09/27 01:16:54;;;;;;;1.80;1.70;;;;;;;-144.22;100.00;60274.75;6273433;28;20231;-41
2022/09/27 01:20:24;;;;;;;3.43;1.47;;;;;;;-144.22;100.00;60274.75;6280241;28;20274;-41
2022/09/27 01:23:35;;;;;;;2.03;1.70;;;;;;;-144.22;100.00;60274.75;6261069;28;20230;-41
2022/09/27 01:27:06;;;;;;;2.00;1.90;;;;;;;-144.22;100.00;60274.75;6261572;28;20728;-41
2022/09/27 01:30:17;;;;;;;2.20;1.30;;;;;;;-144.22;100.00;60274.75;6279579;28;20234;-41
2022/09/27 01:33:44;;;;;;;2.73;1.97;;;;;;;-144.22;100.00;60274.75;6279365;28;20230;-42
2022/09/27 01:37:00;;;;;;;1.60;1.50;;;;;;;-144.22;100.00;60274.75;6260715;28;20521;-42
2022/09/27 01:40:31;;;;;;;4.67;1.60;;;;;;;-144.22;100.00;60274.75;6261423;28;20712;-41
2022/09/27 01:44:00;;;;;;;1.90;1.67;;;;;;;-144.22;100.00;60274.75;6280780;28;20269;-41
2022/09/27 01:47:16;;;;;;;3.23;1.80;;;;;;;-144.22;100.00;60274.75;6260292;28;20235;-42
2022/09/27 01:50:41;;;;;;;2.87;1.90;;;;;;;-144.22;100.00;60274.75;6274105;28;20242;-41
2022/09/27 01:53:51;;;;;;;1.60;1.50;;;;;;;-144.22;100.00;60274.75;6277851;28;20304;-41
2022/09/27 01:57:21;;;;;;;2.20;2.00;;;;;;;-144.22;100.00;60274.75;6240237;28;20223;-41
2022/09/27 02:00:23;;;;;;;1.87;1.77;;;;;;;-144.22;100.00;60274.75;6263005;28;20226;-42
2022/09/27 02:03:34;;;;;;;1.90;1.80;;;;;;;-144.22;100.00;60274.75;6261634;28;20234;-41
2022/09/27 02:07:26;;;;;;;2.37;1.97;;;;;;;-144.22;100.00;60274.75;6227269;28;20233;-41
2022/09/27 02:10:38;;;;;;;1.70;1.60;;;;;;;-144.22;100.00;60274.75;6276015;28;20230;-41
2022/09/27 02:14:02;;;;;;;2.80;2.10;;;;;;;-144.22;100.00;60274.75;6278259;28;20231;-43
2022/09/27 02:17:25;;;;;;;2.70;2.00;;;;;;;-144.22;100.00;60274.75;6277425;28;20701;-42
2022/09/27 02:20:39;;;;;;;2.23;2.03;;;;;;;-144.22;100.00;60274.75;6252587;28;20242;-41
2022/09/27 02:23:57;;;;;;;1.90;1.80;;;;;;;-144.22;100.00;60274.75;6259815;28;20234;-41
2022/09/27 02:27:19;;;;;;;1.70;1.60;;;;;;;-144.22;100.00;60274.75;6261688;28;20230;-41
2022/09/27 02:30:21;;;;;;;2.20;2.00;;;;;;;-144.22;100.00;60274.75;6279233;28;20236;-41
2022/09/27 02:33:39;;;;;;;2.10;1.90;;;;;;;-144.22;100.00;60274.75;6266223;28;20233;-42
2022/09/27 02:36:41;;;;;;;2.00;1.80;;;;;;;-144.22;100.00;60274.75;6266064;28;20318;-42
2022/09/27 02:39:44;;;;;;;2.90;1.87;;;;;;;-144.22;100.00;60274.75;6270375;28;20235;-41
2022/09/27 02:42:46;;;;;;;2.10;1.90;;;;;;;-144.22;100.00;60274.75;6253337;28;20231;-41
2022/09/27 02:46:17;;;;;;;2.77;1.80;;;;;;;-144.22;100.00;60274.75;6265449;28;20253;-41
2022/09/27 02:49:31;;;;;;;1.70;1.53;;;;;;;-144.22;100.00;60274.75;6259805;28;20280;-41
2022/09/27 02:53:13;;;;;;;2.00;1.67;;;;;;;-144.22;100.00;60274.75;6283753;28;20229;-41
2022/09/27 02:56:53;;;;;;;1.73;1.40;;;;;;;-144.22;100.00;60274.75;6281413;28;20237;-41
2022/09/27 03:00:46;;;;;;;2.00;1.63;;;;;;;-144.22;100.00;60274.75;6260373;28;20231;-40
2022/09/27 03:04:13;;;;;;;1.83;1.70;;;;;;;-144.22;100.00;60274.75;6283066;28;20235;-41
2022/09/27 03:07:16;;;;;;;2.03;1.70;;;;;;;-144.22;100.00;60274.75;6281387;28;20763;-41
2022/09/27 03:10:21;;;;;;;2.10;1.80;;;;;;;-144.22;100.00;60274.75;6282514;28;20295;-41
2022/09/27 03:13:24;;;;;;;1.90;1.40;;;;;;;-144.22;100.00;60274.75;6281056;28;20231;-41
2022/09/27 03:16:30;;;;;;;1.73;1.63;;;;;;;-144.22;100.00;60274.75;6264574;28;20427;-41
2022/09/27 03:19:45;;;;;;;1.70;1.60;;;;;;;-144.22;100.00;60274.75;6283657;28;20795;-41
2022/09/27 03:23:13;;;;;;;2.03;1.80;;;;;;;-144.22;100.00;60274.75;6279069;28;20277;-42
2022/09/27 03:26:15;;;;;;;2.63;2.00;;;;;;;-144.22;100.00;60274.75;6279948;28;20231;-41
2022/09/27 03:29:17;;;;;;;2.17;1.70;;;;;;;-144.22;100.00;60274.75;6264812;28;20239;-41
2022/09/27 03:32:26;;;;;;;2.03;1.83;;;;;;;-144.22;100.00;60274.75;6280524;28;20234;-41
2022/09/27 03:35:51;;;;;;;2.43;1.70;;;;;;;-144.22;100.00;60274.75;6270927;28;20231;-42
2022/09/27 03:38:53;;;;;;;2.90;1.80;;;;;;;-144.22;100.00;60274.75;6281573;28;20351;-41
2022/09/27 03:41:56;;;;;;;3.63;1.40;;;;;;;-144.22;100.00;60274.75;6269545;28;20301;-41
2022/09/27 03:44:58;;;;;;;2.20;1.70;;;;;;;-144.22;100.00;60274.75;6269104;28;20698;-41
2022/09/27 03:48:00;;;;;;;2.07;1.87;;;;;;;-144.22;100.00;60274.75;6268266;28;20701;-41
2022/09/27 03:51:03;;;;;;;3.20;1.80;;;;;;;-144.22;100.00;60274.75;6267758;28;20248;-41
2022/09/27 03:54:05;;;;;;;2.20;2.00;;;;;;;-144.22;100.00;60274.75;6264472;28;20199;-41
2022/09/27 03:57:07;;;;;;;3.07;1.77;;;;;;;-144.22;100.00;60274.75;6282138;28;20211;-42
2022/09/27 04:00:11;;;;;;;4.67;1.90;;;;;;;-144.22;100.00;60274.75;6279812;28;20214;-41
2022/09/27 04:03:13;;;;;;;2.03;1.80;;;;;;;-144.22;100.00;60274.75;6280891;28;20214;-41
2022/09/27 04:06:34;;;;;;;1.70;1.60;;;;;;;-144.22;100.00;60274.75;6281943;28;20231;-41
2022/09/27 04:09:38;;;;;;;2.77;1.60;;;;;;;-144.22;100.00;60274.75;6282185;28;20238;-41
2022/09/27 04:12:45;;;;;;;3.97;1.90;;;;;;;-144.22;100.00;60274.75;6262079;28;20232;-41
2022/09/27 04:15:47;;;;;;;1.70;1.60;;;;;;;-144.22;100.00;60274.75;6263718;28;20232;-41
2022/09/27 04:19:18;;;;;;;2.10;1.90;;;;;;;-144.22;100.00;60274.75;6267131;28;20727;-41
2022/09/27 04:22:27;;;;;;;1.90;1.80;;;;;;;-144.22;100.00;60274.75;6262684;28;20234;-42
2022/09/27 04:25:29;;;;;;;3.23;1.97;;;;;;;-144.22;100.00;60274.75;6278676;28;20737;-42
2022/09/27 04:28:33;;;;;;;3.30;1.80;;;;;;;-144.22;100.00;60274.75;6262817;28;20288;-43
2022/09/27 04:31:36;;;;;;;2.03;1.83;;;;;;;-144.22;100.00;60274.75;6279465;28;20273;-41
2022/09/27 04:38:25;;;;;;;2.13;1.87;;;;;;;-144.22;100.00;60274.75;6279161;28;20266;-42
2022/09/27 04:41:28;;;;;;;1.83;1.67;;;;;;;-144.22;100.00;60274.75;6278889;28;20230;-41
2022/09/27 04:44:30;;;;;;;3.80;1.87;;;;;;;-144.22;100.00;60274.75;6262188;28;20227;-43
2022/09/27 04:47:33;;;;;;;1.90;1.70;;;;;;;-144.22;100.00;60274.75;6266454;28;20701;-41
2022/09/27 04:50:35;;;;;;;3.07;2.87;;;;;;;-144.22;100.00;60274.75;6261347;28;20233;-41
2022/09/27 04:53:37;;;;;;;3.37;2.37;;;;;;;-144.22;100.00;60274.75;6280362;28;20319;-42
2022/09/27 04:56:40;;;;;;;2.07;1.87;;;;;;;-144.22;100.00;60274.75;6278599;28;20227;-41
2022/09/27 04:59:42;;;;;;;2.60;2.40;;;;;;;-144.22;100.00;60274.75;6278622;28;20293;-41
2022/09/27 05:02:49;;;;;;;2.13;1.97;;;;;;;-144.22;100.00;60274.75;6278493;28;20243;-40
2022/09/27 05:06:11;;;;;;;3.03;1.63;;;;;;;-144.22;100.00;60274.75;6278800;28;20224;-43
2022/09/27 05:09:14;;;;;;;2.40;2.20;;;;;;;-144.22;100.00;60274.75;6277526;28;20224;-41
2022/09/27 05:12:25;;;;;;;2.33;2.13;;;;;;;-144.22;100.00;60274.75;6279244;28;20222;-41
2022/09/27 05:15:33;;;;;;;2.60;1.97;;;;;;;-144.22;100.00;60274.75;6278115;28;20246;-41
2022/09/27 05:19:03;;;;;;;2.30;2.10;;;;;;;-144.22;100.00;60274.75;6277042;28;20232;-42
2022/09/27 05:22:39;;;;;;;3.63;2.10;;;;;;;-144.22;100.00;60274.75;6274054;28;20283;-41
2022/09/27 05:25:42;;;;;;;2.20;2.00;;;;;;;-144.22;100.00;60274.75;6245373;28;20231;-43
2022/09/27 05:28:46;;;;;;;3.73;1.90;;;;;;;-144.22;100.00;60274.75;6241924;28;20725;-41
2022/09/27 05:31:48;;;;;;;2.40;2.20;;;;;;;-144.22;100.00;60274.75;6245040;28;20258;-41
2022/09/27 05:34:52;;;;;;;3.80;2.03;;;;;;;-144.22;100.00;60274.75;6279162;28;20693;-42
2022/09/27 05:37:56;;;;;;;2.27;2.07;;;;;;;-144.22;100.00;60274.75;6261050;28;20225;-41
2022/09/27 05:41:00;;;;;;;2.90;2.60;;;;;;;-144.22;100.00;60274.75;6276873;28;20733;-41
2022/09/27 05:44:02;;;;;;;2.20;2.00;;;;;;;-144.22;100.00;60274.75;6277401;28;20232;-40
2022/09/27 05:47:04;;;;;;;3.40;2.40;;;;;;;-144.22;100.00;60274.75;6247283;28;20235;-41
2022/09/27 05:50:08;;;;;;;2.97;2.40;;;;;;;-144.22;100.00;60274.75;6279225;28;20244;-41
2022/09/27 05:53:12;;;;;;;2.67;2.33;;;;;;;-144.22;100.00;60274.75;6259572;28;20228;-42
2022/09/27 05:56:16;;;;;;;3.40;2.37;;;;;;;-144.22;100.00;60274.75;6259983;28;20449;-41
2022/09/27 05:59:44;;;;;;;5.07;2.60;;;;;;;-144.22;100.00;60274.75;6273950;28;20234;-43
2022/09/27 06:03:11;;;;;;;3.70;2.40;;;;;;;-144.22;100.00;60274.75;6265894;28;20233;-40
2022/09/27 06:06:39;;;;;;;2.97;2.37;;;;;;;-144.22;100.00;60274.75;6275047;28;20238;-41
2022/09/27 06:09:43;;;;;;;2.53;2.33;;;;;;;-144.22;100.00;60274.75;6277174;28;20322;-41
2022/09/27 06:12:46;;;;;;;2.30;2.10;;;;;;;-144.22;100.00;60274.75;6276644;28;20231;-42
2022/09/27 06:16:02;;;;;;;2.40;2.20;;;;;;;-144.22;100.00;60274.75;6277022;28;20238;-42
2022/09/27 06:19:04;;;;;;;2.27;2.07;;;;;;;-144.22;100.00;60274.75;6277146;28;20262;-42
2022/09/27 06:22:07;;;;;;;3.63;2.43;;;;;;;-144.22;100.00;60274.75;6278676;28;20247;-41
2022/09/27 06:25:16;;;;;;;2.93;2.40;;;;;;;-144.22;100.00;60274.75;6264707;28;20236;-43
2022/09/27 06:28:35;;;;;;;2.47;2.27;;;;;;;-144.22;100.00;60274.75;6277520;28;20240;-41
2022/09/27 06:31:39;;;;;;;3.00;2.73;;;;;;;-144.22;100.00;60274.75;6277982;28;20467;-41
2022/09/27 06:34:57;;;;;;;3.00;2.40;;;;;;;-144.22;100.00;60274.75;6276708;28;20225;-41
2022/09/27 06:38:07;;;;;;;4.07;2.00;;;;;;;-144.22;100.00;60274.75;6274668;28;20714;-42
2022/09/27 06:41:13;;;;;;;3.20;2.53;;;;;;;-144.22;100.00;60274.75;6260153;28;20247;-42
2022/09/27 06:44:38;;;;;;;2.83;2.53;;;;;;;-144.22;100.00;60274.75;6266839;28;20246;-42
2022/09/27 06:48:01;;;;;;;5.30;2.60;;;;;;;-144.22;100.00;60274.75;6267886;28;20250;-43
2022/09/27 06:51:26;;;;;;;2.53;2.33;;;;;;;-144.22;100.00;60274.75;6244374;28;20345;-42
2022/09/27 06:54:28;;;;;;;2.53;2.33;;;;;;;-144.22;100.00;60274.75;6234522;28;20773;-42
2022/09/27 07:00:52;;;;;;;2.50;2.30;;;;;;;-144.22;100.00;60274.75;6234115;28;20642;-42
2022/09/27 07:04:17;;;;;;;2.53;2.33;;;;;;;-144.22;100.00;60274.75;6244143;28;20222;-43
2022/09/27 07:07:47;;;;;;;2.90;2.40;;;;;;;-144.22;100.00;60274.75;6233065;28;20223;-44
2022/09/27 07:10:49;;;;;;;3.10;2.90;;;;;;;-144.22;100.00;60274.75;6234225;28;20292;-42
2022/09/27 07:13:51;;;;;;;3.10;2.80;;;;;;;-144.22;100.00;60274.75;6238010;28;20710;-42
2022/09/27 07:16:53;;;;;;;2.90;2.70;;;;;;;-144.22;100.00;60274.75;6238617;28;20238;-43
2022/09/27 07:19:55;;;;;;;2.87;2.60;;;;;;;-144.22;100.00;60274.75;6254871;28;20316;-43
2022/09/27 07:22:58;;;;;;;3.07;2.47;;;;;;;-144.22;100.00;60274.75;6238865;28;20235;-43
2022/09/27 07:26:09;;;;;;;3.17;2.87;;;;;;;-144.22;100.00;60274.75;6239206;28;20343;-42
2022/09/27 07:29:11;;;;;;;3.17;2.87;;;;;;;-144.22;100.00;60274.75;6238894;28;20321;-43
2022/09/27 07:32:13;;;;;;;3.63;3.33;;;;;;;-144.22;100.00;60274.75;6238438;28;20611;-42
2022/09/27 07:35:15;;;;;;;2.87;2.60;;;;;;;-144.22;100.00;60274.75;6256219;28;20250;-42
2022/09/27 07:38:18;;;;;;;3.17;2.50;;;;;;;-144.22;100.00;60274.75;6254966;28;20244;-43
2022/09/27 07:41:20;;;;;;;4.17;3.43;;;;;;;-144.22;100.00;60274.75;6240132;28;20230;-42
2022/09/27 07:44:22;;;;;;;3.07;2.80;;;;;;;-144.22;100.00;60274.75;6258293;28;20312;-42
2022/09/27 07:47:47;;;;;;;3.23;2.93;;;;;;;-144.22;100.00;60274.75;6244218;28;20234;-44
2022/09/27 07:51:09;;;;;;;2.67;2.47;;;;;;;-144.22;100.00;60274.75;6280988;28;20322;-42
2022/09/27 07:54:21;;;;;;;2.60;2.40;;;;;;;-144.22;100.00;60274.75;6262986;28;20238;-42
2022/09/27 07:57:45;;;;;;;3.13;2.60;;;;;;;-144.22;100.00;60274.75;6263281;28;20272;-42
2022/09/27 08:00:47;;;;;;;3.00;2.73;;;;;;;-144.22;100.00;60274.75;6278786;28;20269;-42
2022/09/27 08:03:49;;;;;;;2.90;2.50;;;;;;;-144.22;100.00;60274.75;6281162;28;20238;-42
2022/09/27 08:06:53;;;;;;;3.07;2.53;;;;;;;-144.22;100.00;60274.75;6279028;28;20611;-43
2022/09/27 08:09:56;;;;;;;3.33;2.40;;;;;;;-144.22;100.00;60274.75;6281072;28;20313;-42
2022/09/27 08:13:02;;;;;;;2.60;2.40;;;;;;;-144.22;100.00;60274.75;6279880;28;20241;-42
2022/09/27 08:16:04;;;;;;;2.70;2.13;;;;;;;-144.22;100.00;60274.75;6279170;28;20275;-42
2022/09/27 08:19:25;;;;;;;2.40;2.00;;;;;;;-144.22;100.00;60274.75;6257668;28;20610;-42
2022/09/27 08:22:42;;;;;;;4.03;2.67;;;;;;;-144.22;100.00;60274.75;6280948;28;20690;-42
2022/09/27 08:25:58;;;;;;;3.73;3.33;;;;;;;-144.22;100.00;60274.75;6280624;28;20313;-43
2022/09/27 08:29:05;;;;;;;5.57;3.63;;;;;;;-144.22;100.00;60274.75;6279625;28;20705;-42
2022/09/27 08:32:12;;;;;;;3.87;3.03;;;;;;;-144.22;100.00;60274.75;6279293;28;20708;-42
2022/09/27 08:35:14;;;;;;;3.50;2.67;;;;;;;-144.22;100.00;60274.75;6262261;28;20240;-41
2022/09/27 08:38:18;;;;;;;2.57;1.90;;;;;;;-144.22;100.00;60274.75;6279725;28;20239;-42
2022/09/27 08:41:51;;;;;;;2.33;1.77;;;;;;;-144.22;100.00;60274.75;6267300;28;20234;-42
2022/09/27 08:45:07;;;;;;;2.67;1.80;;;;;;;-144.22;100.00;60274.75;6274350;28;20241;-43
2022/09/27 08:48:11;;;;;;;2.10;1.67;;;;;;;-144.22;100.00;60274.75;6296735;28;20402;-42
2022/09/27 08:51:14;;;;;;;1.63;1.43;;;;;;;-144.22;100.00;60274.75;6265269;28;20225;-42
2022/09/27 08:54:23;;;;;;;2.90;1.40;;;;;;;-144.22;100.00;60274.75;6262338;28;20691;-42
2022/09/27 08:57:26;;;;;;;1.60;1.50;;;;;;;-144.22;100.00;60274.75;6297917;28;20601;-42
2022/09/27 09:00:28;;;;;;;2.10;1.63;;;;;;;-144.22;100.00;60274.75;6265810;28;20263;-42
2022/09/27 09:03:54;;;;;;;1.93;1.60;;;;;;;-144.22;100.00;60274.75;6264209;28;20732;-42
2022/09/27 09:07:15;;;;;;;2.83;1.57;;;;;;;-144.22;100.00;60274.75;6279074;28;20309;-42
2022/09/27 09:14:22;;;;;;;2.50;1.50;;;;;;;-144.22;100.00;60274.75;6279227;28;20747;-42
2022/09/27 09:17:58;;;;;;;2.80;1.50;;;;;;;-144.22;100.00;60274.75;6278597;28;20249;-42
2022/09/27 09:21:23;;;;;;;1.30;1.10;;;;;;;-144.22;100.00;60274.75;6261221;28;20230;-42
2022/09/27 09:24:52;;;;;;;1.20;1.10;;;;;;;-144.22;100.00;60274.75;6267490;28;20623;-43
2022/09/27 09:28:36;;;;;;;1.57;1.20;;;;;;;-144.22;100.00;60274.75;6264028;28;20359;-43
2022/09/27 09:31:44;;;;;;;1.17;1.07;;;;;;;-144.22;100.00;60274.75;6259691;28;20242;-42
2022/09/27 09:34:56;;;;;;;1.23;1.13;;;;;;;-144.22;100.00;60274.75;6278636;28;20265;-43
2022/09/27 09:38:01;;;;;;;5.80;1.10;;;;;;;-144.22;100.00;60274.75;6276707;28;20233;-42
2022/09/27 09:41:38;;;;;;;1.20;1.10;;;;;;;-144.22;100.00;60274.75;6276469;28;20465;-43
2022/09/27 09:45:02;;;;;;;0.80;0.80;;;;;;;-144.22;100.00;60274.75;6252442;28;20733;-42
2022/09/27 09:48:20;;;;;;;1.10;1.00;;;;;;;-144.22;100.00;60274.75;6253952;28;20245;-41
2022/09/27 09:51:29;;;;;;;1.63;0.87;;;;;;;-144.22;100.00;60274.75;6260262;28;20259;-42
2022/09/27 09:55:09;;;;;;;2.60;0.90;;;;;;;-144.22;100.00;60274.75;6260509;28;20309;-42
2022/09/27 09:58:21;;;;;;;1.93;1.00;;;;;;;-144.22;100.00;60274.75;6267969;28;20380;-44
2022/09/27 10:01:32;;;;;;;1.07;0.70;;;;;;;-144.22;100.00;60274.75;6260326;28;20313;-41
2022/09/27 10:04:34;;;;;;;1.10;1.00;;;;;;;-144.22;100.00;60274.75;6276381;28;20241;-42
2022/09/27 10:07:38;;;;;;;2.17;1.13;;;;;;;-144.22;100.00;60274.75;6277493;28;20243;-42
2022/09/27 10:10:40;;;;;;;1.10;1.00;;;;;;;-144.22;100.00;60274.75;6277360;28;20740;-43
2022/09/27 10:14:01;;;;;;;1.30;1.00;;;;;;;-144.22;100.00;60274.75;6277416;28;20226;-42
2022/09/27 10:17:09;;;;;;;1.23;0.80;;;;;;;-144.22;100.00;60274.75;6277230;28;20283;-41
2022/09/27 10:20:37;;;;;;;0.97;0.80;;;;;;;-144.22;100.00;60274.75;6259838;28;20245;-43
2022/09/27 10:24:04;;;;;;;2.00;0.90;;;;;;;-144.22;100.00;60274.75;6243728;28;20705;-42
2022/09/27 10:27:25;;;;;;;0.70;0.70;;;;;;;-144.22;100.00;60274.75;6236972;28;20226;-42
2022/09/27 10:30:32;;;;;;;1.13;0.80;;;;;;;-144.22;100.00;60274.75;6276803;28;20846;-43
2022/09/27 10:34:01;;;;;;;0.63;0.63;;;;;;;-144.22;100.00;60274.75;6276522;28;20230;-41
2022/09/27 10:37:23;;;;;;;0.60;0.60;;;;;;;-144.22;100.00;60274.75;6275676;28;20605;-44
2022/09/27 10:40:52;;;;;;;0.53;0.53;;;;;;;-144.22;100.00;60274.75;6259722;28;20238;-42
2022/09/27 10:43:54;;;;;;;0.50;0.50;;;;;;;-144.22;100.00;60274.75;6299498;28;20229;-42
2022/09/27 10:47:09;;;;;;;1.00;0.70;;;;;;;-144.22;100.00;60274.75;6261904;28;20705;-42
2022/09/27 10:50:25;;;;;;;0.80;0.63;;;;;;;-144.22;100.00;60274.75;6256936;28;20281;-42
2022/09/27 10:54:00;;;;;;;0.50;0.40;;;;;;;-144.22;100.00;60274.75;6253693;28;20289;-42
2022/09/27 10:57:18;;;;;;;0.40;0.40;;;;;;;-144.22;100.00;60274.75;6275381;28;20637;-42
2022/09/27 11:00:35;;;;;;;0.83;0.50;;;;;;;-144.22;100.00;60274.75;6264030;28;20222;-42
2022/09/27 11:03:53;;;;;;;0.40;0.40;;;;;;;-144.22;100.00;60274.75;6280790;28;20230;-43
2022/09/27 11:07:19;;;;;;;0.57;0.50;;;;;;;-144.22;100.00;60274.75;6281235;28;20226;-41
2022/09/27 11:10:41;;;;;;;1.10;0.77;;;;;;;-144.22;100.00;60274.75;6281907;28;20241;-43
2022/09/27 11:14:16;;;;;;;0.63;0.50;;;;;;;-144.22;100.00;60274.75;6281185;28;20234;-43
2022/09/27 11:18:05;;;;;;;0.40;0.40;;;;;;;-144.22;100.00;60274.75;6282012;28;20241;-43
2022/09/27 11:21:17;;;;;;;0.80;0.60;;;;;;;-144.22;100.00;60274.75;6264672;28;20701;-43
2022/09/27 11:24:38;;;;;;;1.00;0.63;;;;;;;-144.22;100.00;60274.75;6281264;28;20683;-42
2022/09/27 11:27:44;;;;;;;1.00;0.60;;;;;;;-144.22;100.00;60274.75;6263606;28;20296;-42
2022/09/27 11:31:08;;;;;;;3.17;0.50;;;;;;;-144.22;100.00;60274.75;6281611;28;20237;-42
2022/09/27 11:34:35;;;;;;;0.50;0.50;;;;;;;-144.22;100.00;60274.75;6279487;28;20594;-43
2022/09/27 11:37:41;;;;;;;0.70;0.40;;;;;;;-144.22;100.00;60274.75;6280633;28;20230;-42
2022/09/27 11:41:17;;;;;;;0.73;0.50;;;;;;;-144.22;100.00;60274.75;6263587;28;20234;-43
2022/09/27 11:44:37;;;;;;;1.10;0.50;;;;;;;-144.22;100.00;60274.75;6250502;28;20222;-42
2022/09/27 11:47:51;;;;;;;3.50;0.40;;;;;;;-144.22;100.00;60274.75;6263713;28;20238;-42
2022/09/27 11:51:21;;;;;;;3.10;0.60;;;;;;;-144.22;100.00;60274.75;6270975;28;20232;-42
2022/09/27 11:54:44;;;;;;;1.50;0.47;;;;;;;-144.22;100.00;60274.75;6246137;28;20267;-42
2022/09/27 11:58:05;;;;;;;0.40;0.40;;;;;;;-144.22;100.00;60274.75;6262766;28;20241;-42
2022/09/27 12:01:26;;;;;;;1.80;0.50;;;;;;;-144.22;100.00;60274.75;6263351;28;20226;-43
2022/09/27 12:04:50;;;;;;;0.30;0.30;;;;;;;-144.22;100.00;60274.75;6262864;28;20223;-42
2022/09/27 12:08:16;;;;;;;0.63;0.50;;;;;;;-144.22;100.00;60274.75;6278441;28;20597;-42
2022/09/27 12:11:25;;;;;;;1.30;0.50;;;;;;;-144.22;100.00;60274.75;6262360;28;20230;-43
2022/09/27 12:14:30;;;;;;;0.70;0.50;;;;;;;-144.22;100.00;60274.75;6263965;28;20219;-43
2022/09/27 12:17:38;;;;;;;0.67;0.40;;;;;;;-144.22;100.00;60274.75;6267566;28;20240;-42
2022/09/27 12:20:42;;;;;;;1.00;0.50;;;;;;;-144.22;100.00;60274.75;6280136;28;20596;-42
2022/09/27 12:23:51;;;;;;;0.43;0.43;;;;;;;-144.22;100.00;60274.75;6270734;28;20308;-42
2022/09/27 12:27:15;;;;;;;1.60;0.60;;;;;;;-144.22;100.00;60274.75;6280844;28;20313;-44
2022/09/27 12:30:17;;;;;;;0.70;0.60;;;;;;;-144.22;100.00;60274.75;6261537;28;20209;-43
2022/09/27 12:33:41;;;;;;;0.80;0.53;;;;;;;-144.22;100.00;60274.75;6280049;28;20314;-41
2022/09/27 12:36:49;;;;;;;1.63;0.40;;;;;;;-144.22;100.00;60274.75;6283355;28;20609;-43
2022/09/27 12:40:26;;;;;;;1.47;0.40;;;;;;;-144.22;100.00;60274.75;6262201;28;20233;-42
2022/09/27 12:43:34;;;;;;;1.60;0.57;;;;;;;-144.22;100.00;60274.75;6245940;28;20231;-44
2022/09/27 12:47:41;;;;;;;0.50;0.47;;;;;;;-144.22;100.00;60274.75;6279296;28;20717;-42
2022/09/27 12:50:54;;;;;;;0.60;0.50;;;;;;;-144.22;100.00;60274.75;6277571;28;20268;-42
2022/09/27 12:54:12;;;;;;;0.50;0.50;;;;;;;-144.22;100.00;60274.75;6262810;28;20716;-42
2022/09/27 12:57:37;;;;;;;1.30;0.60;;;;;;;-144.22;100.00;60274.75;6278954;28;20792;-42
2022/09/27 13:01:10;;;;;;;0.50;0.50;;;;;;;-144.22;100.00;60274.75;6279197;28;20239;-42
2022/09/27 13:04:50;;;;;;;2.10;0.60;;;;;;;-144.22;100.00;60274.75;6248733;28;20708;-42
2022/09/27 13:08:21;;;;;;;0.87;0.70;;;;;;;-144.22;100.00;60274.75;6261375;28;20230;-43
2022/09/27 13:11:36;;;;;;;0.73;0.50;;;;;;;-144.22;100.00;60274.75;6276512;28;20223;-42
2022/09/27 13:14:45;;;;;;;0.67;0.47;;;;;;;-144.22;100.00;60274.75;6277083;28;20717;-43
2022/09/27 13:17:52;;;;;;;0.47;0.47;;;;;;;-144.22;100.00;60274.75;6277206;28;20234;-42
2022/09/27 13:21:44;;;;;;;0.53;0.50;;;;;;;-144.22;100.00;60274.75;6268377;28;20743;-43
2022/09/27 13:25:53;;;;;;;0.50;0.43;;;;;;;-144.22;100.00;60274.75;6260723;28;20235;-42
2022/09/27 13:29:03;;;;;;;1.67;0.60;;;;;;;-144.22;100.00;60274.75;6261836;28;20230;-42
2022/09/27 13:32:26;;;;;;;2.40;0.57;;;;;;;-144.22;100.00;60274.75;6275333;28;20231;-43
2022/09/27 13:36:15;;;;;;;1.70;0.33;;;;;;;-144.22;100.00;60274.75;6278115;28;20815;-42
2022/09/27 13:39:21;;;;;;;1.13;0.67;;;;;;;-144.22;100.00;60274.75;6278104;28;20694;-42
2022/09/27 13:43:12;;;;;;;0.60;0.50;;;;;;;-144.22;100.00;60274.75;6276227;28;20234;-44
2022/09/27 13:46:50;;;;;;;0.80;0.50;;;;;;;-144.22;100.00;60274.75;6251945;28;20261;-43
2022/09/27 13:50:30;;;;;;;0.77;0.60;;;;;;;-144.22;100.00;60274.75;6252374;28;20237;-43
2022/09/27 13:53:45;;;;;;;1.47;0.53;;;;;;;-144.22;100.00;60274.75;6208903;28;20274;-43
2022/09/27 13:56:49;;;;;;;0.83;0.60;;;;;;;-144.22;100.00;60274.75;6252581;28;20243;-43
2022/09/27 13:59:58;;;;;;;2.80;0.70;;;;;;;-144.22;100.00;60274.75;6251888;28;20597;-43
2022/09/27 14:03:34;;;;;;;1.90;0.60;;;;;;;-144.22;100.00;60274.75;6253581;28;20691;-42
2022/09/27 14:06:44;;;;;;;3.13;0.60;;;;;;;-144.22;100.00;60274.75;6237274;28;20233;-42
2022/09/27 14:09:51;;;;;;;0.20;0.20;;;;;;;-144.22;100.00;60274.75;6251716;28;20235;-44
2022/09/27 14:12:59;;;;;;;0.20;0.20;;;;;;;-144.22;100.00;60274.75;6234714;28;20334;-42
2022/09/27 14:16:04;;;;;;;0.30;0.30;;;;;;;-144.22;100.00;60274.75;6252154;28;20235;-43
2022/09/27 14:19:18;;;;;;;0.30;0.30;;;;;;;-144.22;100.00;60274.75;6252158;28;20239;-42
2022/09/27 14:22:22;;;;;;;3.47;0.30;;;;;;;-144.22;100.00;60274.75;6235716;28;20344;-42
2022/09/27 14:25:46;;;;;;;0.20;0.20;;;;;;;-144.22;100.00;60274.75;6256425;28;20223;-42
2022/09/27 14:28:48;;;;;;;0.30;0.20;;;;;;;-144.22;100.00;60274.75;6257890;28;20219;-42
2022/09/27 14:32:05;;;;;;;2.20;0.30;;;;;;;-144.22;100.00;60274.75;6256736;28;20235;-42
2022/09/27 14:38:47;;;;;;;0.20;0.20;;;;;;;-144.22;100.00;60274.75;6257051;28;20250;-43
2022/09/27 14:42:19;;;;;;;0.77;0.30;;;;;;;-144.22;100.00;60274.75;6257815;28;20227;-42
2022/09/27 14:45:35;;;;;;;0.30;0.30;;;;;;;-144.22;100.00;60274.75;6234035;28;20235;-42
2022/09/27 14:48:39;;;;;;;0.47;0.20;;;;;;;-144.22;100.00;60274.75;6257264;28;20242;-42
2022/09/27 14:51:41;;;;;;;0.30;0.30;;;;;;;-144.22;100.00;60274.75;6258449;28;20230;-43
2022/09/27 14:54:43;;;;;;;0.97;0.40;;;;;;;-144.22;100.00;60274.75;6258565;28;20288;-43
2022/09/27 14:57:55;;;;;;;0.33;0.30;;;;;;;-144.22;100.00;60274.75;6258641;28;20227;-42